sensor_id;sensor_type;location;lat;lon;timestamp;pressure;altitude;pressure_sealevel;temperature;humidity
23616;BME280;11985;49.404;7.734;2023-05-25T00:00:39;97806.47;;;7.78;93.87
23616;BME280;11985;49.404;7.734;2023-05-25T00:05:41;97812.88;;;7.76;94.45
23616;BME280;11985;49.404;7.734;2023-05-25T00:10:44;97810.06;;;7.77;94.41
23616;BME280;11985;49.404;7.734;2023-05-25T00:15:45;97806.81;;;7.75;95.39
23616;BME280;11985;49.404;7.734;2023-05-25T00:20:50;97803.56;;;7.73;95.72
23616;BME280;11985;49.404;7.734;2023-05-25T00:25:54;97804.25;;;7.67;96.30
23616;BME280;11985;49.404;7.734;2023-05-25T00:30:56;97796.00;;;7.55;96.66
23616;BME280;11985;49.404;7.734;2023-05-25T00:35:57;97798.94;;;7.52;97.77
23616;BME280;11985;49.404;7.734;2023-05-25T00:41:00;97803.88;;;7.47;98.19
23616;BME280;11985;49.404;7.734;2023-05-25T00:46:02;97803.28;;;7.37;98.88
23616;BME280;11985;49.404;7.734;2023-05-25T00:51:03;97802.00;;;7.33;99.73
23616;BME280;11985;49.404;7.734;2023-05-25T00:56:13;97806.47;;;7.24;100.00
23616;BME280;11985;49.404;7.734;2023-05-25T01:01:15;97804.16;;;7.21;100.00
23616;BME280;11985;49.404;7.734;2023-05-25T01:06:17;97800.59;;;7.14;100.00
23616;BME280;11985;49.404;7.734;2023-05-25T01:11:26;97803.91;;;7.08;100.00
23616;BME280;11985;49.404;7.734;2023-05-25T01:16:29;97807.53;;;7.07;100.00
23616;BME280;11985;49.404;7.734;2023-05-25T01:21:34;97812.09;;;7.05;100.00
23616;BME280;11985;49.404;7.734;2023-05-25T01:26:44;97807.38;;;7.00;100.00
23616;BME280;11985;49.404;7.734;2023-05-25T01:31:47;97803.28;;;6.98;100.00
23616;BME280;11985;49.404;7.734;2023-05-25T01:36:50;97805.44;;;6.94;100.00
23616;BME280;11985;49.404;7.734;2023-05-25T01:41:52;97815.94;;;6.86;100.00
23616;BME280;11985;49.404;7.734;2023-05-25T01:47:01;97814.13;;;6.86;100.00
23616;BME280;11985;49.404;7.734;2023-05-25T01:52:12;97823.97;;;6.84;100.00
23616;BME280;11985;49.404;7.734;2023-05-25T01:57:17;97824.16;;;6.75;100.00
23616;BME280;11985;49.404;7.734;2023-05-25T02:02:19;97824.00;;;6.68;100.00
23616;BME280;11985;49.404;7.734;2023-05-25T02:07:23;97816.47;;;6.73;100.00
23616;BME280;11985;49.404;7.734;2023-05-25T02:12:24;97818.41;;;6.71;100.00
23616;BME280;11985;49.404;7.734;2023-05-25T02:17:26;97815.81;;;6.71;100.00
23616;BME280;11985;49.404;7.734;2023-05-25T02:22:30;97809.94;;;6.69;100.00
23616;BME280;11985;49.404;7.734;2023-05-25T02:27:32;97801.44;;;6.67;100.00
23616;BME280;11985;49.404;7.734;2023-05-25T02:32:34;97804.56;;;6.63;100.00
23616;BME280;11985;49.404;7.734;2023-05-25T02:37:37;97808.16;;;6.61;100.00
23616;BME280;11985;49.404;7.734;2023-05-25T02:42:38;97800.44;;;6.60;100.00
23616;BME280;11985;49.404;7.734;2023-05-25T02:47:40;97808.00;;;6.55;100.00
23616;BME280;11985;49.404;7.734;2023-05-25T02:52:43;97808.66;;;6.49;100.00
23616;BME280;11985;49.404;7.734;2023-05-25T02:57:46;97798.38;;;6.47;100.00
23616;BME280;11985;49.404;7.734;2023-05-25T03:02:47;97789.06;;;6.45;100.00
23616;BME280;11985;49.404;7.734;2023-05-25T03:07:50;97796.91;;;6.45;100.00
23616;BME280;11985;49.404;7.734;2023-05-25T03:12:52;97793.81;;;6.41;100.00
23616;BME280;11985;49.404;7.734;2023-05-25T03:17:53;97806.38;;;6.38;100.00
23616;BME280;11985;49.404;7.734;2023-05-25T03:23:01;97810.81;;;6.37;100.00
23616;BME280;11985;49.404;7.734;2023-05-25T03:28:03;97811.97;;;6.34;100.00
23616;BME280;11985;49.404;7.734;2023-05-25T03:33:05;97812.28;;;6.31;100.00
23616;BME280;11985;49.404;7.734;2023-05-25T03:38:07;97825.22;;;6.25;100.00
23616;BME280;11985;49.404;7.734;2023-05-25T03:43:09;97823.91;;;6.21;100.00
23616;BME280;11985;49.404;7.734;2023-05-25T03:48:10;97832.91;;;6.18;100.00
23616;BME280;11985;49.404;7.734;2023-05-25T03:53:13;97821.13;;;6.30;100.00
23616;BME280;11985;49.404;7.734;2023-05-25T03:58:15;97830.56;;;6.48;100.00
23616;BME280;11985;49.404;7.734;2023-05-25T04:03:17;97831.53;;;6.63;100.00
23616;BME280;11985;49.404;7.734;2023-05-25T04:08:21;97845.75;;;6.69;100.00
23616;BME280;11985;49.404;7.734;2023-05-25T04:13:24;97840.03;;;6.65;100.00
23616;BME280;11985;49.404;7.734;2023-05-25T04:18:25;97851.66;;;6.63;100.00
23616;BME280;11985;49.404;7.734;2023-05-25T04:23:28;97863.28;;;6.60;100.00
23616;BME280;11985;49.404;7.734;2023-05-25T04:28:30;97859.19;;;6.57;100.00
23616;BME280;11985;49.404;7.734;2023-05-25T04:33:32;97871.78;;;6.54;100.00
23616;BME280;11985;49.404;7.734;2023-05-25T04:38:39;97868.84;;;6.57;100.00
23616;BME280;11985;49.404;7.734;2023-05-25T04:43:42;97871.63;;;6.64;100.00
23616;BME280;11985;49.404;7.734;2023-05-25T04:48:44;97879.63;;;6.78;100.00
23616;BME280;11985;49.404;7.734;2023-05-25T04:53:47;97882.16;;;7.11;100.00
23616;BME280;11985;49.404;7.734;2023-05-25T04:58:50;97883.53;;;7.38;100.00
23616;BME280;11985;49.404;7.734;2023-05-25T05:03:52;97880.97;;;7.61;100.00
23616;BME280;11985;49.404;7.734;2023-05-25T05:08:54;97894.66;;;7.79;100.00
23616;BME280;11985;49.404;7.734;2023-05-25T05:13:56;97898.63;;;7.98;100.00
23616;BME280;11985;49.404;7.734;2023-05-25T05:18:58;97906.06;;;8.17;100.00
23616;BME280;11985;49.404;7.734;2023-05-25T05:24:01;97910.06;;;8.28;100.00
23616;BME280;11985;49.404;7.734;2023-05-25T05:29:02;97912.13;;;8.41;100.00
23616;BME280;11985;49.404;7.734;2023-05-25T05:34:04;97912.13;;;8.64;100.00
23616;BME280;11985;49.404;7.734;2023-05-25T05:39:07;97918.13;;;8.87;100.00
23616;BME280;11985;49.404;7.734;2023-05-25T05:44:09;97922.16;;;9.13;100.00
23616;BME280;11985;49.404;7.734;2023-05-25T05:49:11;97926.25;;;9.45;100.00
23616;BME280;11985;49.404;7.734;2023-05-25T05:54:14;97929.38;;;9.70;100.00
23616;BME280;11985;49.404;7.734;2023-05-25T05:59:15;97929.25;;;9.93;100.00
23616;BME280;11985;49.404;7.734;2023-05-25T06:04:17;97922.22;;;10.15;100.00
23616;BME280;11985;49.404;7.734;2023-05-25T06:09:21;97923.38;;;10.48;100.00
23616;BME280;11985;49.404;7.734;2023-05-25T06:14:22;97921.75;;;10.69;100.00
23616;BME280;11985;49.404;7.734;2023-05-25T06:19:24;97923.63;;;11.03;100.00
23616;BME280;11985;49.404;7.734;2023-05-25T06:24:27;97921.00;;;11.37;98.15
23616;BME280;11985;49.404;7.734;2023-05-25T06:29:29;97922.59;;;11.73;95.81
23616;BME280;11985;49.404;7.734;2023-05-25T06:34:31;97928.03;;;12.06;92.95
23616;BME280;11985;49.404;7.734;2023-05-25T06:39:33;97937.00;;;12.19;89.92
23616;BME280;11985;49.404;7.734;2023-05-25T06:44:35;97925.63;;;12.18;87.38
23616;BME280;11985;49.404;7.734;2023-05-25T06:49:37;97929.94;;;12.46;85.86
23616;BME280;11985;49.404;7.734;2023-05-25T06:54:40;97928.31;;;12.64;83.41
23616;BME280;11985;49.404;7.734;2023-05-25T06:59:41;97930.56;;;12.67;83.36
23616;BME280;11985;49.404;7.734;2023-05-25T07:04:43;97936.66;;;13.08;82.46
23616;BME280;11985;49.404;7.734;2023-05-25T07:09:45;97934.22;;;13.33;79.94
23616;BME280;11985;49.404;7.734;2023-05-25T07:14:47;97932.53;;;13.58;78.25
23616;BME280;11985;49.404;7.734;2023-05-25T07:19:49;97934.97;;;13.66;76.11
23616;BME280;11985;49.404;7.734;2023-05-25T07:24:52;97942.19;;;13.91;75.19
23616;BME280;11985;49.404;7.734;2023-05-25T07:29:53;97934.66;;;14.33;73.93
23616;BME280;11985;49.404;7.734;2023-05-25T07:34:55;97931.56;;;14.36;71.24
23616;BME280;11985;49.404;7.734;2023-05-25T07:39:58;97945.75;;;14.10;69.75
23616;BME280;11985;49.404;7.734;2023-05-25T07:44:59;97935.41;;;14.40;70.45
23616;BME280;11985;49.404;7.734;2023-05-25T07:50:01;97941.22;;;14.87;68.92
23616;BME280;11985;49.404;7.734;2023-05-25T07:55:05;97945.47;;;14.94;66.86
23616;BME280;11985;49.404;7.734;2023-05-25T08:00:08;97946.09;;;14.90;66.06
23616;BME280;11985;49.404;7.734;2023-05-25T08:05:10;97943.50;;;15.08;65.94
23616;BME280;11985;49.404;7.734;2023-05-25T08:10:13;97944.44;;;15.39;65.24
23616;BME280;11985;49.404;7.734;2023-05-25T08:15:15;97953.09;;;15.71;63.84
23616;BME280;11985;49.404;7.734;2023-05-25T08:20:16;97950.22;;;15.91;62.97
23616;BME280;11985;49.404;7.734;2023-05-25T08:25:20;97948.56;;;16.08;62.34
23616;BME280;11985;49.404;7.734;2023-05-25T08:30:21;97950.75;;;16.29;61.23
23616;BME280;11985;49.404;7.734;2023-05-25T08:35:23;97947.19;;;16.35;60.86
23616;BME280;11985;49.404;7.734;2023-05-25T08:40:26;97957.75;;;16.54;59.92
23616;BME280;11985;49.404;7.734;2023-05-25T08:45:28;97974.94;;;16.40;59.30
23616;BME280;11985;49.404;7.734;2023-05-25T08:50:31;97971.34;;;16.34;58.79
23616;BME280;11985;49.404;7.734;2023-05-25T08:55:36;97968.66;;;16.22;57.90
23616;BME280;11985;49.404;7.734;2023-05-25T09:00:43;97970.97;;;16.30;57.12
23616;BME280;11985;49.404;7.734;2023-05-25T09:05:46;97969.44;;;16.53;57.02
23616;BME280;11985;49.404;7.734;2023-05-25T09:10:51;97964.72;;;16.85;56.93
23616;BME280;11985;49.404;7.734;2023-05-25T09:15:52;97962.56;;;17.17;55.60
23616;BME280;11985;49.404;7.734;2023-05-25T09:20:54;97962.78;;;17.27;54.91
23616;BME280;11985;49.404;7.734;2023-05-25T09:25:57;97969.38;;;17.25;54.14
23616;BME280;11985;49.404;7.734;2023-05-25T09:31:01;97972.03;;;17.13;52.99
23616;BME280;11985;49.404;7.734;2023-05-25T09:36:03;97975.25;;;16.92;52.90
23616;BME280;11985;49.404;7.734;2023-05-25T09:41:07;97966.03;;;17.18;53.77
23616;BME280;11985;49.404;7.734;2023-05-25T09:46:10;97976.31;;;17.61;53.22
23616;BME280;11985;49.404;7.734;2023-05-25T09:51:11;97972.94;;;17.89;52.49
23616;BME280;11985;49.404;7.734;2023-05-25T09:56:15;97969.81;;;17.92;51.71
23616;BME280;11985;49.404;7.734;2023-05-25T10:01:18;97974.88;;;18.05;51.93
23616;BME280;11985;49.404;7.734;2023-05-25T10:06:20;97966.44;;;17.97;51.75
23616;BME280;11985;49.404;7.734;2023-05-25T10:11:24;97981.75;;;17.89;51.98
23616;BME280;11985;49.404;7.734;2023-05-25T10:16:26;97978.50;;;17.87;51.18
23616;BME280;11985;49.404;7.734;2023-05-25T10:21:30;97978.84;;;17.67;50.35
23616;BME280;11985;49.404;7.734;2023-05-25T10:26:35;97976.97;;;18.03;50.50
23616;BME280;11985;49.404;7.734;2023-05-25T10:31:41;97979.03;;;18.41;50.16
23616;BME280;11985;49.404;7.734;2023-05-25T10:36:42;97971.50;;;18.10;48.28
23616;BME280;11985;49.404;7.734;2023-05-25T10:41:46;97980.44;;;18.04;48.02
23616;BME280;11985;49.404;7.734;2023-05-25T10:46:49;97981.41;;;18.26;48.10
23616;BME280;11985;49.404;7.734;2023-05-25T10:51:57;97980.47;;;18.61;47.57
23616;BME280;11985;49.404;7.734;2023-05-25T10:57:10;97989.91;;;18.80;46.73
23616;BME280;11985;49.404;7.734;2023-05-25T11:02:13;97981.66;;;18.82;46.25
23616;BME280;11985;49.404;7.734;2023-05-25T11:07:16;97988.34;;;18.67;45.93
23616;BME280;11985;49.404;7.734;2023-05-25T11:12:20;97979.97;;;18.64;45.31
23616;BME280;11985;49.404;7.734;2023-05-25T11:17:22;97982.31;;;18.89;44.95
23616;BME280;11985;49.404;7.734;2023-05-25T11:22:30;97985.78;;;18.89;44.38
23616;BME280;11985;49.404;7.734;2023-05-25T11:27:44;97975.31;;;18.71;44.13
23616;BME280;11985;49.404;7.734;2023-05-25T11:32:47;97966.38;;;18.77;43.80
23616;BME280;11985;49.404;7.734;2023-05-25T11:37:49;97966.63;;;18.92;43.69
23616;BME280;11985;49.404;7.734;2023-05-25T11:42:54;97970.41;;;19.30;43.85
23616;BME280;11985;49.404;7.734;2023-05-25T11:47:57;97976.19;;;19.22;43.52
23616;BME280;11985;49.404;7.734;2023-05-25T11:52:58;97957.97;;;19.19;43.07
23616;BME280;11985;49.404;7.734;2023-05-25T11:58:01;97958.56;;;19.43;43.20
23616;BME280;11985;49.404;7.734;2023-05-25T12:03:03;97966.00;;;19.58;42.08
23616;BME280;11985;49.404;7.734;2023-05-25T12:08:04;97962.53;;;19.57;42.39
23616;BME280;11985;49.404;7.734;2023-05-25T12:13:08;97963.44;;;19.63;41.83
23616;BME280;11985;49.404;7.734;2023-05-25T12:18:10;97964.00;;;19.48;41.88
23616;BME280;11985;49.404;7.734;2023-05-25T12:23:12;97954.34;;;19.64;41.97
23616;BME280;11985;49.404;7.734;2023-05-25T12:28:15;97944.19;;;19.61;41.96
23616;BME280;11985;49.404;7.734;2023-05-25T12:33:17;97951.59;;;19.59;41.71
23616;BME280;11985;49.404;7.734;2023-05-25T12:38:21;97946.88;;;19.83;41.37
23616;BME280;11985;49.404;7.734;2023-05-25T12:43:24;97948.47;;;19.84;40.53
23616;BME280;11985;49.404;7.734;2023-05-25T12:48:26;97944.56;;;19.52;40.54
23616;BME280;11985;49.404;7.734;2023-05-25T12:53:28;97934.38;;;19.88;40.84
23616;BME280;11985;49.404;7.734;2023-05-25T12:58:31;97927.22;;;20.21;40.12
23616;BME280;11985;49.404;7.734;2023-05-25T13:03:33;97941.75;;;20.52;38.76
23616;BME280;11985;49.404;7.734;2023-05-25T13:08:34;97922.34;;;20.13;38.18
23616;BME280;11985;49.404;7.734;2023-05-25T13:13:37;97919.75;;;19.96;37.56
23616;BME280;11985;49.404;7.734;2023-05-25T13:18:39;97933.25;;;20.55;37.96
23616;BME280;11985;49.404;7.734;2023-05-25T13:23:41;97933.66;;;21.06;38.06
23616;BME280;11985;49.404;7.734;2023-05-25T13:28:43;97934.38;;;20.96;36.36
23616;BME280;11985;49.404;7.734;2023-05-25T13:33:45;97940.09;;;20.46;35.48
23616;BME280;11985;49.404;7.734;2023-05-25T13:38:46;97929.19;;;20.03;36.06
23616;BME280;11985;49.404;7.734;2023-05-25T13:43:49;97929.25;;;20.09;36.77
23616;BME280;11985;49.404;7.734;2023-05-25T13:48:52;97933.19;;;20.82;37.83
23616;BME280;11985;49.404;7.734;2023-05-25T13:53:53;97930.50;;;21.14;37.86
23616;BME280;11985;49.404;7.734;2023-05-25T13:58:56;97934.94;;;20.98;37.65
23616;BME280;11985;49.404;7.734;2023-05-25T14:03:58;97922.97;;;20.74;37.09
23616;BME280;11985;49.404;7.734;2023-05-25T14:08:59;97922.81;;;20.59;37.42
23616;BME280;11985;49.404;7.734;2023-05-25T14:14:03;97923.41;;;20.61;37.29
23616;BME280;11985;49.404;7.734;2023-05-25T14:19:07;97917.03;;;21.04;37.85
23616;BME280;11985;49.404;7.734;2023-05-25T14:24:08;97918.72;;;21.10;36.83
23616;BME280;11985;49.404;7.734;2023-05-25T14:29:12;97922.22;;;21.21;36.77
23616;BME280;11985;49.404;7.734;2023-05-25T14:34:13;97912.31;;;21.64;37.48
23616;BME280;11985;49.404;7.734;2023-05-25T14:39:15;97911.63;;;21.31;36.43
23616;BME280;11985;49.404;7.734;2023-05-25T14:44:18;97911.03;;;21.76;36.76
23616;BME280;11985;49.404;7.734;2023-05-25T14:49:19;97913.91;;;21.54;36.00
23616;BME280;11985;49.404;7.734;2023-05-25T14:54:23;97918.63;;;21.37;36.21
23616;BME280;11985;49.404;7.734;2023-05-25T14:59:26;97918.53;;;21.27;35.84
23616;BME280;11985;49.404;7.734;2023-05-25T15:04:28;97921.53;;;20.98;35.90
23616;BME280;11985;49.404;7.734;2023-05-25T15:09:30;97907.69;;;21.06;36.06
23616;BME280;11985;49.404;7.734;2023-05-25T15:14:34;97918.91;;;21.03;35.89
23616;BME280;11985;49.404;7.734;2023-05-25T15:19:39;97917.28;;;21.34;36.33
23616;BME280;11985;49.404;7.734;2023-05-25T15:24:40;97915.03;;;21.26;36.85
23616;BME280;11985;49.404;7.734;2023-05-25T15:29:44;97912.38;;;20.89;37.22
23616;BME280;11985;49.404;7.734;2023-05-25T15:34:46;97912.75;;;20.71;37.68
23616;BME280;11985;49.404;7.734;2023-05-25T15:39:47;97916.19;;;20.98;37.76
23616;BME280;11985;49.404;7.734;2023-05-25T15:44:50;97905.28;;;21.47;37.39
23616;BME280;11985;49.404;7.734;2023-05-25T15:49:52;97899.84;;;21.37;36.55
23616;BME280;11985;49.404;7.734;2023-05-25T15:54:53;97893.94;;;21.30;36.76
23616;BME280;11985;49.404;7.734;2023-05-25T15:59:56;97905.53;;;21.46;37.27
23616;BME280;11985;49.404;7.734;2023-05-25T16:04:58;97903.81;;;21.82;36.88
23616;BME280;11985;49.404;7.734;2023-05-25T16:09:59;97902.41;;;21.64;36.54
23616;BME280;11985;49.404;7.734;2023-05-25T16:15:03;97896.50;;;21.57;35.63
23616;BME280;11985;49.404;7.734;2023-05-25T16:20:06;97899.91;;;21.05;35.70
23616;BME280;11985;49.404;7.734;2023-05-25T16:25:08;97904.91;;;20.91;35.36
23616;BME280;11985;49.404;7.734;2023-05-25T16:30:12;97904.00;;;21.18;35.13
23616;BME280;11985;49.404;7.734;2023-05-25T16:35:13;97913.13;;;21.17;35.09
23616;BME280;11985;49.404;7.734;2023-05-25T16:40:15;97907.06;;;21.31;34.65
23616;BME280;11985;49.404;7.734;2023-05-25T16:45:18;97906.53;;;21.29;34.69
23616;BME280;11985;49.404;7.734;2023-05-25T16:50:20;97904.28;;;21.64;34.61
23616;BME280;11985;49.404;7.734;2023-05-25T16:55:22;97897.69;;;21.92;34.07
23616;BME280;11985;49.404;7.734;2023-05-25T17:00:25;97898.66;;;22.33;34.26
23616;BME280;11985;49.404;7.734;2023-05-25T17:05:26;97895.97;;;22.48;33.88
23616;BME280;11985;49.404;7.734;2023-05-25T17:10:28;97890.03;;;22.31;33.19
23616;BME280;11985;49.404;7.734;2023-05-25T17:15:31;97901.47;;;21.33;33.23
23616;BME280;11985;49.404;7.734;2023-05-25T17:20:32;97900.38;;;20.65;33.94
23616;BME280;11985;49.404;7.734;2023-05-25T17:25:34;97900.69;;;20.14;34.26
23616;BME280;11985;49.404;7.734;2023-05-25T17:30:37;97898.16;;;20.02;35.42
23616;BME280;11985;49.404;7.734;2023-05-25T17:35:38;97901.91;;;19.80;35.74
23616;BME280;11985;49.404;7.734;2023-05-25T17:40:40;97900.94;;;19.47;36.84
23616;BME280;11985;49.404;7.734;2023-05-25T17:45:43;97900.34;;;19.23;37.26
23616;BME280;11985;49.404;7.734;2023-05-25T17:50:44;97894.69;;;19.03;37.83
23616;BME280;11985;49.404;7.734;2023-05-25T17:55:46;97895.03;;;18.89;38.44
23616;BME280;11985;49.404;7.734;2023-05-25T18:00:49;97901.50;;;18.77;38.95
23616;BME280;11985;49.404;7.734;2023-05-25T18:05:51;97901.00;;;18.63;39.75
23616;BME280;11985;49.404;7.734;2023-05-25T18:10:52;97897.25;;;18.47;39.94
23616;BME280;11985;49.404;7.734;2023-05-25T18:15:55;97902.09;;;18.33;40.69
23616;BME280;11985;49.404;7.734;2023-05-25T18:20:57;97905.63;;;18.22;41.51
23616;BME280;11985;49.404;7.734;2023-05-25T18:25:59;97909.16;;;18.11;42.32
23616;BME280;11985;49.404;7.734;2023-05-25T18:31:02;97911.31;;;18.14;42.80
23616;BME280;11985;49.404;7.734;2023-05-25T18:36:04;97913.19;;;18.13;43.49
23616;BME280;11985;49.404;7.734;2023-05-25T18:41:05;97912.03;;;18.09;44.09
23616;BME280;11985;49.404;7.734;2023-05-25T18:46:08;97911.53;;;17.96;44.52
23616;BME280;11985;49.404;7.734;2023-05-25T18:51:10;97914.81;;;17.74;44.92
23616;BME280;11985;49.404;7.734;2023-05-25T18:56:11;97924.81;;;17.55;45.54
23616;BME280;11985;49.404;7.734;2023-05-25T19:01:14;97925.50;;;17.39;46.40
23616;BME280;11985;49.404;7.734;2023-05-25T19:06:16;97933.97;;;17.24;47.03
23616;BME280;11985;49.404;7.734;2023-05-25T19:11:18;97927.16;;;17.05;48.19
23616;BME280;11985;49.404;7.734;2023-05-25T19:16:21;97932.66;;;16.92;48.64
23616;BME280;11985;49.404;7.734;2023-05-25T19:21:22;97942.72;;;16.78;49.41
23616;BME280;11985;49.404;7.734;2023-05-25T19:26:24;97944.16;;;16.62;50.29
23616;BME280;11985;49.404;7.734;2023-05-25T19:31:28;97949.41;;;16.39;51.42
23616;BME280;11985;49.404;7.734;2023-05-25T19:36:29;97963.63;;;16.14;52.62
23616;BME280;11985;49.404;7.734;2023-05-25T19:41:31;97961.38;;;15.99;53.43
23616;BME280;11985;49.404;7.734;2023-05-25T19:46:36;97962.03;;;15.95;54.44
23616;BME280;11985;49.404;7.734;2023-05-25T19:51:38;97957.63;;;15.89;55.13
23616;BME280;11985;49.404;7.734;2023-05-25T19:56:40;97963.53;;;15.72;55.94
23616;BME280;11985;49.404;7.734;2023-05-25T20:01:43;97971.16;;;15.44;56.99
23616;BME280;11985;49.404;7.734;2023-05-25T20:06:44;97976.84;;;15.22;57.99
23616;BME280;11985;49.404;7.734;2023-05-25T20:11:46;97982.97;;;14.98;59.44
23616;BME280;11985;49.404;7.734;2023-05-25T20:16:50;97988.63;;;14.76;61.15
23616;BME280;11985;49.404;7.734;2023-05-25T20:21:52;97993.63;;;14.60;62.19
23616;BME280;11985;49.404;7.734;2023-05-25T20:26:54;97989.97;;;14.54;63.34
23616;BME280;11985;49.404;7.734;2023-05-25T20:31:57;97982.22;;;14.59;64.31
23616;BME280;11985;49.404;7.734;2023-05-25T20:36:58;97987.84;;;14.69;64.95
23616;BME280;11985;49.404;7.734;2023-05-25T20:42:00;98003.34;;;14.72;65.56
23616;BME280;11985;49.404;7.734;2023-05-25T20:47:03;98012.34;;;14.71;65.91
23616;BME280;11985;49.404;7.734;2023-05-25T20:52:05;98014.41;;;14.63;66.00
23616;BME280;11985;49.404;7.734;2023-05-25T20:57:06;98029.94;;;14.59;66.48
23616;BME280;11985;49.404;7.734;2023-05-25T21:02:09;98022.78;;;14.66;66.93
23616;BME280;11985;49.404;7.734;2023-05-25T21:07:11;98022.94;;;14.71;67.40
23616;BME280;11985;49.404;7.734;2023-05-25T21:12:13;98027.03;;;14.67;67.83
23616;BME280;11985;49.404;7.734;2023-05-25T21:17:16;98036.69;;;14.55;68.33
23616;BME280;11985;49.404;7.734;2023-05-25T21:22:19;98033.66;;;14.45;68.93
23616;BME280;11985;49.404;7.734;2023-05-25T21:27:20;98044.75;;;14.15;69.74
23616;BME280;11985;49.404;7.734;2023-05-25T21:32:23;98036.47;;;13.98;70.49
23616;BME280;11985;49.404;7.734;2023-05-25T21:37:25;98047.69;;;13.87;71.77
23616;BME280;11985;49.404;7.734;2023-05-25T21:42:27;98054.44;;;13.77;72.81
23616;BME280;11985;49.404;7.734;2023-05-25T21:47:30;98053.44;;;13.64;74.24
23616;BME280;11985;49.404;7.734;2023-05-25T21:52:31;98049.41;;;13.55;75.71
23616;BME280;11985;49.404;7.734;2023-05-25T21:57:33;98054.69;;;13.42;77.14
23616;BME280;11985;49.404;7.734;2023-05-25T22:02:36;98059.56;;;13.32;78.83
23616;BME280;11985;49.404;7.734;2023-05-25T22:07:37;98063.03;;;13.26;80.02
23616;BME280;11985;49.404;7.734;2023-05-25T22:12:39;98062.78;;;13.20;80.44
23616;BME280;11985;49.404;7.734;2023-05-25T22:17:42;98070.50;;;13.15;81.04
23616;BME280;11985;49.404;7.734;2023-05-25T22:22:43;98072.97;;;13.10;81.36
23616;BME280;11985;49.404;7.734;2023-05-25T22:27:45;98080.69;;;13.05;81.65
23616;BME280;11985;49.404;7.734;2023-05-25T22:32:48;98077.63;;;12.95;81.98
23616;BME280;11985;49.404;7.734;2023-05-25T22:37:49;98070.50;;;12.89;82.60
23616;BME280;11985;49.404;7.734;2023-05-25T22:42:51;98080.66;;;12.79;83.27
23616;BME280;11985;49.404;7.734;2023-05-25T22:47:54;98080.59;;;12.65;83.98
23616;BME280;11985;49.404;7.734;2023-05-25T22:52:55;98078.94;;;12.58;84.76
23616;BME280;11985;49.404;7.734;2023-05-25T22:57:57;98072.41;;;12.47;85.50
23616;BME280;11985;49.404;7.734;2023-05-25T23:03:00;98075.22;;;12.39;86.61
23616;BME280;11985;49.404;7.734;2023-05-25T23:08:02;98086.59;;;12.33;87.12
23616;BME280;11985;49.404;7.734;2023-05-25T23:13:04;98078.44;;;12.28;87.77
23616;BME280;11985;49.404;7.734;2023-05-25T23:18:08;98076.38;;;12.23;88.46
23616;BME280;11985;49.404;7.734;2023-05-25T23:23:09;98073.50;;;12.18;89.02
23616;BME280;11985;49.404;7.734;2023-05-25T23:28:11;98076.28;;;12.10;89.92
23616;BME280;11985;49.404;7.734;2023-05-25T23:33:14;98073.63;;;12.03;90.59
23616;BME280;11985;49.404;7.734;2023-05-25T23:38:17;98075.41;;;11.96;91.27
23616;BME280;11985;49.404;7.734;2023-05-25T23:43:19;98084.72;;;11.92;91.89
23616;BME280;11985;49.404;7.734;2023-05-25T23:48:21;98079.41;;;11.85;92.44
23616;BME280;11985;49.404;7.734;2023-05-25T23:53:23;98075.69;;;11.80;93.10
23616;BME280;11985;49.404;7.734;2023-05-25T23:58:25;98076.47;;;11.74;93.66
